Time;durP1;ratioP1;P1;durP2;ratioP2;P2;SDS_P1;SDS_P2;PMS_P1;PMS_P2;Temp;Humidity;BMP_temperature;BMP_pressure;BME280_temperature;BME280_humidity;BME280_pressure;Samples;Min_cycle;Max_cycle;Signal;HPM_P1;HPM_P2
2023/04/09 00:02:12;;;;;;;63.50;46.50;;;;;;;11.54;65.31;102459.22;5089015;28;20020;-65
2023/04/09 00:04:38;;;;;;;53.40;43.25;;;;;;;11.55;65.30;102460.91;5088591;28;20048;-65
2023/04/09 00:07:03;;;;;;;53.58;41.42;;;;;;;11.50;65.54;102457.94;5076019;28;20039;-66
2023/04/09 00:09:28;;;;;;;52.00;41.42;;;;;;;11.51;65.74;102448.53;5073994;28;20039;-65
2023/04/09 00:11:53;;;;;;;49.25;38.80;;;;;;;11.53;65.52;102451.94;5057628;28;20128;-65
2023/04/09 00:14:19;;;;;;;50.20;40.15;;;;;;;11.53;65.46;102452.81;5050214;28;20029;-65
2023/04/09 00:16:44;;;;;;;50.42;40.47;;;;;;;11.50;65.36;102446.81;5051358;28;20044;-65
2023/04/09 00:19:10;;;;;;;47.58;38.85;;;;;;;11.50;65.61;102452.38;5050432;28;20031;-66
2023/04/09 00:21:36;;;;;;;49.42;40.17;;;;;;;11.48;65.73;102443.44;5050271;28;20090;-66
2023/04/09 00:24:01;;;;;;;53.00;40.95;;;;;;;11.49;65.90;102447.91;5053568;28;20483;-65
2023/04/09 00:26:26;;;;;;;48.05;39.35;;;;;;;11.47;65.70;102450.88;5064520;28;20039;-66
2023/04/09 00:28:51;;;;;;;46.80;38.05;;;;;;;11.47;65.93;102445.31;5064701;28;20371;-66
2023/04/09 00:31:17;;;;;;;48.03;39.03;;;;;;;11.50;65.97;102441.25;5068160;28;20089;-65
2023/04/09 00:33:42;;;;;;;47.40;37.65;;;;;;;11.47;65.64;102438.91;5058454;28;20108;-66
2023/04/09 00:36:08;;;;;;;45.45;36.67;;;;;;;11.48;65.89;102433.16;5070171;28;20039;-66
2023/04/09 00:38:33;;;;;;;48.65;37.95;;;;;;;11.48;66.14;102433.16;5067704;28;20383;-65
2023/04/09 00:40:58;;;;;;;43.25;34.85;;;;;;;11.49;66.12;102434.84;5068824;28;20035;-65
2023/04/09 00:43:24;;;;;;;45.75;35.53;;;;;;;11.48;66.24;102447.06;5069891;28;20390;-65
2023/04/09 00:45:50;;;;;;;43.78;35.00;;;;;;;11.47;66.01;102442.53;5063813;28;20021;-65
2023/04/09 00:48:16;;;;;;;42.97;35.20;;;;;;;11.47;66.37;102438.91;5057190;28;20124;-65
2023/04/09 00:50:41;;;;;;;41.42;34.50;;;;;;;11.45;66.11;102443.88;5053722;28;20035;-65
2023/04/09 00:53:09;;;;;;;41.28;33.95;;;;;;;11.44;66.35;102434.66;5070033;28;20024;-65
2023/04/09 00:55:34;;;;;;;39.22;33.70;;;;;;;11.45;66.34;102429.97;5066692;28;20028;-66
2023/04/09 00:58:00;;;;;;;38.40;32.13;;;;;;;11.48;66.22;102440.66;5069821;28;20055;-65
2023/04/09 01:00:26;;;;;;;38.03;31.52;;;;;;;11.46;66.31;102438.06;5069627;28;20028;-65
2023/04/09 01:02:54;;;;;;;40.42;32.60;;;;;;;11.48;66.06;102432.31;5067441;28;20033;-66
2023/04/09 01:05:20;;;;;;;39.05;31.27;;;;;;;11.45;66.51;102430.81;5068479;28;20059;-65
2023/04/09 01:08:05;;;;;;;37.90;32.03;;;;;;;11.43;66.52;102427.38;5051553;28;20100;-65
2023/04/09 01:10:49;;;;;;;35.83;29.15;;;;;;;11.46;66.75;102426.09;5060558;28;21837;-65
2023/04/09 01:13:27;;;;;;;41.25;31.00;;;;;;;11.45;66.50;102432.75;5081800;28;20037;-66
2023/04/09 01:15:59;;;;;;;37.30;29.73;;;;;;;11.41;66.72;102426.75;5077102;28;20104;-66
2023/04/09 01:18:34;;;;;;;36.17;30.75;;;;;;;11.41;66.81;102421.19;5087768;28;20419;-66
2023/04/09 01:21:05;;;;;;;35.20;30.38;;;;;;;11.39;67.04;102412.22;5092970;28;20110;-66
2023/04/09 01:23:56;;;;;;;36.83;30.00;;;;;;;11.42;66.70;102416.50;5074608;28;20479;-66
2023/04/09 01:26:57;;;;;;;33.97;28.40;;;;;;;11.44;66.76;102408.78;5075660;28;20804;-66
2023/04/09 01:29:24;;;;;;;37.72;30.80;;;;;;;11.42;66.84;102410.94;5073155;28;20036;-66
2023/04/09 01:31:51;;;;;;;37.83;30.05;;;;;;;11.41;67.20;102414.78;5077616;28;20024;-66
2023/04/09 01:34:18;;;;;;;34.15;29.27;;;;;;;11.39;67.10;102417.78;5086712;28;20094;-66
2023/04/09 01:36:53;;;;;;;38.45;31.63;;;;;;;11.38;67.25;102406.88;5084931;28;20052;-66
2023/04/09 01:39:18;;;;;;;39.15;31.17;;;;;;;11.40;67.18;102413.09;5072374;28;20033;-65
2023/04/09 01:41:45;;;;;;;36.05;29.70;;;;;;;11.38;67.31;102412.44;5074483;28;20031;-65
2023/04/09 01:44:11;;;;;;;37.13;30.08;;;;;;;11.34;67.52;102420.38;5087767;28;20032;-65
2023/04/09 01:46:38;;;;;;;37.70;30.15;;;;;;;11.32;67.65;102414.19;5084920;28;20471;-65
2023/04/09 01:49:04;;;;;;;35.22;30.25;;;;;;;11.31;67.77;102413.31;5093857;28;20031;-65
2023/04/09 01:51:31;;;;;;;36.90;30.27;;;;;;;11.31;67.74;102399.41;5082225;28;20421;-65
2023/04/09 01:53:57;;;;;;;37.70;30.08;;;;;;;11.34;67.70;102402.84;5072125;28;20036;-65
2023/04/09 01:56:23;;;;;;;38.33;30.35;;;;;;;11.34;67.68;102406.47;5072598;28;20487;-66
2023/04/09 01:58:48;;;;;;;36.78;30.83;;;;;;;11.37;67.65;102407.97;5075608;28;20049;-66
2023/04/09 02:01:31;;;;;;;39.15;31.27;;;;;;;11.36;67.72;102406.25;5084125;28;20038;-66
2023/04/09 02:04:01;;;;;;;36.10;29.80;;;;;;;11.34;67.86;102408.41;5089497;28;20035;-65
2023/04/09 02:06:38;;;;;;;39.05;31.42;;;;;;;11.30;68.18;102410.75;5081249;28;20821;-66
2023/04/09 02:09:07;;;;;;;39.30;31.65;;;;;;;11.31;68.11;102412.47;5073428;28;20056;-66
2023/04/09 02:11:36;;;;;;;39.55;32.28;;;;;;;11.30;67.94;102413.53;5062474;28;20132;-66
2023/04/09 02:14:03;;;;;;;40.20;30.40;;;;;;;11.29;68.10;102406.28;5052632;28;20032;-65
2023/04/09 02:16:31;;;;;;;41.35;31.98;;;;;;;11.28;68.38;102404.59;5052010;28;20037;-65
2023/04/09 02:18:56;;;;;;;40.15;31.90;;;;;;;11.24;68.09;102398.63;5052855;28;20025;-66
2023/04/09 02:21:23;;;;;;;43.75;33.25;;;;;;;11.26;68.34;102398.38;5053155;28;20083;-66
2023/04/09 02:23:49;;;;;;;40.97;33.35;;;;;;;11.22;68.66;102392.41;5052460;28;20500;-66
2023/04/09 02:26:14;;;;;;;41.22;32.97;;;;;;;11.23;68.59;102396.88;5053173;28;20027;-66
2023/04/09 02:28:39;;;;;;;43.92;34.67;;;;;;;11.24;68.49;102392.22;5051560;28;20020;-66
2023/04/09 02:31:05;;;;;;;42.97;34.08;;;;;;;11.25;68.61;102394.75;5052425;28;20083;-66
2023/04/09 02:33:30;;;;;;;44.17;34.67;;;;;;;11.27;68.44;102394.53;5053074;28;20472;-66
2023/04/09 02:35:55;;;;;;;43.00;34.78;;;;;;;11.28;68.33;102401.81;5051226;28;20105;-65
2023/04/09 02:38:20;;;;;;;46.55;35.33;;;;;;;11.23;68.54;102396.03;5062995;28;20024;-66
2023/04/09 02:40:46;;;;;;;44.40;34.50;;;;;;;11.25;68.44;102399.47;5072592;28;20074;-66
2023/04/09 02:43:11;;;;;;;44.13;33.95;;;;;;;11.26;68.37;102398.38;5072105;28;20094;-65
2023/04/09 02:45:36;;;;;;;48.22;35.28;;;;;;;11.26;68.39;102396.44;5067559;28;20388;-66
2023/04/09 02:48:02;;;;;;;47.65;36.15;;;;;;;11.27;68.15;102397.31;5053530;28;20032;-65
2023/04/09 02:50:27;;;;;;;45.97;35.08;;;;;;;11.24;68.45;102383.88;5051622;28;20106;-66
2023/04/09 02:52:52;;;;;;;46.53;35.83;;;;;;;11.22;68.67;102386.00;5052167;28;20380;-66
2023/04/09 02:55:18;;;;;;;49.10;36.05;;;;;;;11.22;68.70;102389.63;5057031;28;20044;-66
2023/04/09 02:57:44;;;;;;;46.08;35.17;;;;;;;11.22;68.57;102384.06;5072097;28;20043;-66
2023/04/09 03:00:10;;;;;;;46.08;35.53;;;;;;;11.22;68.50;102386.00;5063299;28;20029;-66
2023/04/09 03:02:35;;;;;;;46.38;35.30;;;;;;;11.19;68.94;102380.88;5069112;28;20039;-66
2023/04/09 03:05:01;;;;;;;50.13;36.85;;;;;;;11.21;68.58;102379.59;5055534;28;20037;-65
2023/04/09 03:07:26;;;;;;;47.60;35.72;;;;;;;11.20;68.45;102379.78;5054428;28;20484;-65
2023/04/09 03:09:51;;;;;;;49.80;36.53;;;;;;;11.22;68.39;102377.66;5070166;28;20040;-66
2023/04/09 03:12:17;;;;;;;50.08;37.17;;;;;;;11.25;68.18;102382.78;5081048;28;20049;-66
2023/04/09 03:14:42;;;;;;;52.38;36.45;;;;;;;11.20;68.57;102377.00;5079041;28;20067;-66
2023/04/09 03:17:07;;;;;;;51.42;36.97;;;;;;;11.18;68.73;102376.41;5076602;28;20027;-66
2023/04/09 03:19:33;;;;;;;52.80;37.80;;;;;;;11.18;68.73;102368.06;5089190;28;20036;-65
2023/04/09 03:21:58;;;;;;;51.08;37.42;;;;;;;11.16;68.86;102371.06;5086378;28;20066;-66
2023/04/09 03:24:23;;;;;;;50.03;36.88;;;;;;;11.16;68.56;102362.72;5090424;28;20049;-65
2023/04/09 03:26:48;;;;;;;53.15;37.55;;;;;;;11.20;68.36;102365.91;5082907;28;20036;-66
2023/04/09 03:29:14;;;;;;;52.92;39.00;;;;;;;11.15;68.70;102363.78;5086443;28;20387;-65
2023/04/09 03:31:39;;;;;;;53.42;38.53;;;;;;;11.15;69.06;102368.50;5070015;28;20040;-66
2023/04/09 03:34:04;;;;;;;54.80;38.78;;;;;;;11.12;69.04;102366.16;5086224;28;20758;-66
2023/04/09 03:36:30;;;;;;;54.20;38.30;;;;;;;11.10;69.12;102369.16;5078551;28;20032;-65
2023/04/09 03:38:55;;;;;;;54.10;38.72;;;;;;;11.09;68.94;102366.63;5078393;28;20107;-65
2023/04/09 03:41:21;;;;;;;56.88;39.13;;;;;;;11.09;69.19;102356.34;5078445;28;20030;-65
2023/04/09 03:43:46;;;;;;;53.28;38.85;;;;;;;11.10;69.08;102355.25;5074671;28;20396;-65
2023/04/09 03:46:12;;;;;;;53.22;38.90;;;;;;;11.11;68.99;102362.53;5075557;28;20028;-66
2023/04/09 03:48:38;;;;;;;52.88;38.88;;;;;;;11.09;68.90;102355.50;5071974;28;20055;-66
2023/04/09 03:51:03;;;;;;;53.63;39.03;;;;;;;11.11;68.97;102361.66;5072793;28;20064;-66
2023/04/09 03:53:28;;;;;;;55.88;39.70;;;;;;;11.03;68.90;102352.50;5085780;28;20021;-66
2023/04/09 03:55:53;;;;;;;55.47;40.20;;;;;;;11.06;68.68;102356.78;5089368;28;20027;-65
2023/04/09 03:58:19;;;;;;;57.60;40.20;;;;;;;11.07;68.82;102356.53;5077622;28;20029;-65
2023/04/09 04:00:44;;;;;;;56.42;40.17;;;;;;;11.06;68.81;102357.63;5074330;28;20026;-65
2023/04/09 04:03:10;;;;;;;55.63;40.78;;;;;;;11.06;68.70;102357.63;5088285;28;20031;-65
2023/04/09 04:05:36;;;;;;;56.47;40.45;;;;;;;11.07;68.46;102361.25;5082899;28;20043;-66
2023/04/09 04:08:01;;;;;;;58.25;40.92;;;;;;;11.06;68.64;102354.00;5069689;28;20471;-65
2023/04/09 04:10:26;;;;;;;53.67;40.00;;;;;;;11.01;68.74;102363.00;5072775;28;20067;-65
2023/04/09 04:12:52;;;;;;;60.88;41.42;;;;;;;11.01;68.84;102357.44;5087346;28;20028;-65
2023/04/09 04:15:18;;;;;;;57.65;41.38;;;;;;;11.01;68.51;102360.22;5088862;28;20544;-67
2023/04/09 04:17:44;;;;;;;58.25;41.70;;;;;;;10.99;68.89;102362.34;5088309;28;20024;-66
2023/04/09 04:20:10;;;;;;;56.75;40.42;;;;;;;10.96;68.88;102367.50;5086844;28;20024;-65
2023/04/09 04:22:35;;;;;;;56.50;41.42;;;;;;;10.98;68.75;102359.81;5090024;28;20032;-66
2023/04/09 04:25:01;;;;;;;56.58;40.92;;;;;;;10.93;68.73;102354.91;5089460;28;20032;-65
2023/04/09 04:27:26;;;;;;;56.03;40.67;;;;;;;10.94;68.48;102355.75;5076850;28;20040;-65
2023/04/09 04:29:51;;;;;;;54.50;40.75;;;;;;;10.95;68.17;102358.31;5070046;28;20025;-65
2023/04/09 04:32:17;;;;;;;58.63;39.55;;;;;;;10.93;68.02;102351.28;5088907;28;20031;-65
2023/04/09 04:34:42;;;;;;;55.30;39.17;;;;;;;10.92;67.40;102355.97;5110124;28;20462;-65
2023/04/09 04:37:07;;;;;;;54.72;40.33;;;;;;;10.90;68.11;102351.72;5100075;28;20043;-65
2023/04/09 04:39:32;;;;;;;55.15;39.05;;;;;;;10.90;67.48;102358.13;5090890;28;20530;-65
2023/04/09 04:41:58;;;;;;;58.80;40.47;;;;;;;10.88;67.79;102354.69;5090503;28;20043;-65
2023/04/09 04:44:23;;;;;;;53.40;38.75;;;;;;;10.86;67.82;102354.06;5079037;28;20028;-65
2023/04/09 04:46:48;;;;;;;54.95;39.03;;;;;;;10.84;67.61;102364.53;5072494;28;20028;-65
2023/04/09 04:49:14;;;;;;;52.85;37.50;;;;;;;10.82;67.47;102361.13;5089896;28;20401;-65
2023/04/09 04:51:39;;;;;;;51.22;36.75;;;;;;;10.80;67.27;102368.81;5091155;28;20028;-65
2023/04/09 04:54:04;;;;;;;51.83;35.13;;;;;;;10.78;66.85;102370.97;5093067;28;20076;-66
2023/04/09 04:56:30;;;;;;;52.28;35.08;;;;;;;10.73;66.60;102368.00;5094628;28;20020;-66
2023/04/09 04:58:55;;;;;;;53.95;35.90;;;;;;;10.72;66.83;102364.34;5095042;28;20157;-65
2023/04/09 05:01:20;;;;;;;51.50;35.33;;;;;;;10.68;66.21;102365.84;5087148;28;20368;-65
2023/04/09 05:03:46;;;;;;;51.22;34.53;;;;;;;10.66;66.31;102368.00;5075718;28;20043;-65
2023/04/09 05:06:11;;;;;;;46.90;33.60;;;;;;;10.63;66.28;102365.66;5094765;28;20028;-65
2023/04/09 05:08:36;;;;;;;50.42;33.65;;;;;;;10.59;65.93;102366.31;5094089;28;20032;-65
2023/04/09 05:11:01;;;;;;;46.50;33.58;;;;;;;10.57;65.75;102358.19;5079468;28;20044;-65
2023/04/09 05:13:27;;;;;;;50.95;32.72;;;;;;;10.55;65.67;102361.19;5076261;28;20369;-65
2023/04/09 05:15:52;;;;;;;44.83;32.35;;;;;;;10.52;65.71;102361.63;5074438;28;20035;-65
2023/04/09 05:18:17;;;;;;;48.08;33.15;;;;;;;10.49;65.63;102362.06;5073389;28;20066;-65
2023/04/09 05:20:42;;;;;;;47.15;33.42;;;;;;;10.42;65.61;102360.38;5074251;28;20028;-65
2023/04/09 05:23:09;;;;;;;50.03;33.75;;;;;;;10.43;65.45;102357.38;5073158;28;20064;-65
2023/04/09 05:25:34;;;;;;;47.40;33.30;;;;;;;10.40;65.70;102365.28;5080897;28;20071;-65
2023/04/09 05:27:59;;;;;;;47.75;32.63;;;;;;;10.36;65.76;102362.06;5072706;28;20128;-65
2023/04/09 05:30:25;;;;;;;46.80;33.28;;;;;;;10.36;65.66;102364.84;5090115;28;20484;-65
2023/04/09 05:32:50;;;;;;;47.90;33.15;;;;;;;10.35;65.94;102367.84;5093937;28;20028;-66
2023/04/09 05:35:16;;;;;;;48.10;32.55;;;;;;;10.32;65.71;102366.34;5094119;28;20035;-65
2023/04/09 05:37:41;;;;;;;49.63;34.33;;;;;;;10.29;65.61;102364.00;5092805;28;20024;-65
2023/04/09 05:40:07;;;;;;;46.88;33.10;;;;;;;10.28;65.51;102368.69;5093709;28;20020;-66
2023/04/09 05:42:32;;;;;;;49.83;33.78;;;;;;;10.27;65.63;102366.13;5092825;28;20035;-66
2023/04/09 05:44:58;;;;;;;51.47;32.72;;;;;;;10.26;65.75;102356.13;5091720;28;20394;-65
2023/04/09 05:47:23;;;;;;;42.80;32.15;;;;;;;10.25;65.83;102359.94;5073425;28;20032;-66
2023/04/09 05:49:48;;;;;;;46.70;33.05;;;;;;;10.25;65.62;102369.09;5073548;28;20776;-66
2023/04/09 05:52:15;;;;;;;50.05;34.28;;;;;;;10.24;65.94;102363.75;5072668;28;20028;-66
2023/04/09 05:54:40;;;;;;;48.22;33.25;;;;;;;10.17;65.96;102365.66;5074494;28;20063;-66
2023/04/09 05:57:06;;;;;;;45.15;32.95;;;;;;;10.22;65.84;102372.31;5094016;28;20051;-66
2023/04/09 05:59:31;;;;;;;49.75;33.80;;;;;;;10.24;66.05;102369.31;5093168;28;20125;-66
2023/04/09 06:01:56;;;;;;;48.53;34.55;;;;;;;10.25;65.93;102371.03;5079626;28;20029;-65
2023/04/09 06:04:22;;;;;;;46.33;33.20;;;;;;;10.27;65.76;102369.75;5073696;28;20080;-65
2023/04/09 06:06:47;;;;;;;49.72;33.42;;;;;;;10.32;65.96;102377.44;5072662;28;20024;-66
2023/04/09 06:09:12;;;;;;;48.83;35.40;;;;;;;10.31;65.88;102371.03;5073029;28;20028;-66
2023/04/09 06:11:38;;;;;;;47.55;33.08;;;;;;;10.37;65.76;102385.97;5073762;28;20040;-66
2023/04/09 06:14:03;;;;;;;50.20;33.08;;;;;;;10.36;65.75;102387.03;5072273;28;20032;-65
2023/04/09 06:16:28;;;;;;;49.30;34.85;;;;;;;10.42;65.72;102382.56;5073270;28;20043;-65
2023/04/09 06:18:55;;;;;;;45.97;33.75;;;;;;;10.46;65.56;102384.69;5075674;28;20024;-66
2023/04/09 06:21:21;;;;;;;49.10;33.85;;;;;;;10.53;65.23;102377.22;5081104;28;20393;-66
2023/04/09 06:23:46;;;;;;;50.90;34.13;;;;;;;10.57;65.30;102386.81;5091637;28;20089;-66
2023/04/09 06:26:11;;;;;;;49.38;33.85;;;;;;;10.63;64.91;102381.47;5088172;28;20051;-66
2023/04/09 06:28:36;;;;;;;47.72;34.80;;;;;;;10.66;65.16;102383.81;5091336;28;20043;-66
2023/04/09 06:31:02;;;;;;;50.78;34.15;;;;;;;10.72;65.00;102394.91;5092965;28;20375;-66
2023/04/09 06:33:27;;;;;;;42.40;31.88;;;;;;;10.76;65.11;102396.16;5085798;28;20032;-67
2023/04/09 06:35:52;;;;;;;44.00;33.15;;;;;;;10.80;64.76;102391.88;5074248;28;20078;-66
2023/04/09 06:38:17;;;;;;;48.60;34.58;;;;;;;10.75;65.12;102386.13;5072578;28;20028;-65
2023/04/09 06:40:43;;;;;;;46.83;34.25;;;;;;;10.79;65.02;102392.13;5077803;28;20143;-65
2023/04/09 06:43:09;;;;;;;51.30;34.88;;;;;;;10.82;64.66;102395.31;5092078;28;20035;-66
2023/04/09 06:45:35;;;;;;;49.05;34.72;;;;;;;10.85;64.52;102396.81;5091594;28;20060;-66
2023/04/09 06:48:00;;;;;;;48.35;34.97;;;;;;;10.85;64.85;102394.03;5092078;28;20029;-66
2023/04/09 06:50:26;;;;;;;46.72;34.05;;;;;;;10.89;64.79;102392.53;5091671;28;20050;-66
2023/04/09 06:52:52;;;;;;;48.10;33.95;;;;;;;10.93;64.83;102399.34;5070146;28;20078;-65
2023/04/09 06:55:17;;;;;;;49.78;35.60;;;;;;;10.94;65.01;102398.28;5068441;28;20454;-64
2023/04/09 06:57:43;;;;;;;53.40;35.65;;;;;;;10.93;64.78;102407.69;5088445;28;20035;-65
2023/04/09 07:00:09;;;;;;;50.35;36.65;;;;;;;10.98;64.03;102405.09;5086706;28;20106;-65
2023/04/09 07:02:35;;;;;;;48.78;34.25;;;;;;;11.02;63.89;102402.75;5071027;28;20387;-64
2023/04/09 07:05:02;;;;;;;47.10;35.05;;;;;;;11.03;64.20;102396.97;5087972;28;20034;-64
2023/04/09 07:07:28;;;;;;;52.42;39.67;;;;;;;11.09;64.28;102399.97;5069900;28;20512;-64
2023/04/09 07:09:53;;;;;;;49.35;37.03;;;;;;;11.05;63.92;102394.81;5067623;28;20123;-66
2023/04/09 07:12:33;;;;;;;50.22;36.70;;;;;;;11.11;64.46;102392.22;5068216;28;20123;-65
2023/04/09 07:14:59;;;;;;;49.08;36.17;;;;;;;11.15;64.02;102399.06;5069911;28;20074;-66
2023/04/09 07:17:25;;;;;;;50.28;36.83;;;;;;;11.21;63.94;102400.97;5083319;28;20379;-65
2023/04/09 07:19:53;;;;;;;49.38;37.75;;;;;;;11.25;63.84;102394.75;5078730;28;20024;-66
2023/04/09 07:22:21;;;;;;;48.17;36.83;;;;;;;11.30;63.39;102397.72;5087051;28;20040;-64
2023/04/09 07:24:52;;;;;;;52.30;36.40;;;;;;;11.39;63.13;102406.66;5073889;28;20027;-66
2023/04/09 07:27:17;;;;;;;48.58;36.67;;;;;;;11.41;63.08;102407.31;5086734;28;20047;-66
2023/04/09 07:29:43;;;;;;;52.55;37.83;;;;;;;11.47;63.02;102406.41;5069888;28;20386;-66
2023/04/09 07:32:08;;;;;;;47.42;35.88;;;;;;;11.51;63.10;102402.13;5086047;28;20035;-65
2023/04/09 07:34:34;;;;;;;51.40;37.55;;;;;;;11.55;62.60;102406.19;5079867;28;20028;-65
2023/04/09 07:36:59;;;;;;;52.13;37.75;;;;;;;11.60;62.67;102404.66;5067014;28;20059;-65
2023/04/09 07:39:24;;;;;;;48.95;36.33;;;;;;;11.64;62.76;102403.97;5076424;28;20039;-64
2023/04/09 07:41:50;;;;;;;49.70;37.63;;;;;;;11.69;62.84;102409.72;5086213;28;20027;-65
2023/04/09 07:44:15;;;;;;;48.05;37.58;;;;;;;11.68;62.84;102409.94;5077925;28;20443;-65
2023/04/09 07:46:42;;;;;;;51.22;37.13;;;;;;;11.77;62.80;102405.81;5080459;28;20036;-64
2023/04/09 07:49:07;;;;;;;50.00;38.80;;;;;;;11.84;62.43;102409.47;5083492;28;20031;-65
2023/04/09 07:51:35;;;;;;;49.70;38.42;;;;;;;11.85;62.59;102404.75;5071209;28;20383;-63
2023/04/09 07:54:01;;;;;;;52.42;38.08;;;;;;;11.89;62.26;102398.50;5071135;28;20055;-64
2023/04/09 07:56:26;;;;;;;49.50;38.40;;;;;;;11.98;61.87;102399.94;5069069;28;20032;-66
2023/04/09 07:58:51;;;;;;;50.75;39.28;;;;;;;12.06;62.26;102406.31;5077855;28;20470;-65
2023/04/09 08:01:16;;;;;;;52.13;37.95;;;;;;;12.14;62.10;102406.03;5086142;28;20028;-64
2023/04/09 08:03:42;;;;;;;49.10;37.65;;;;;;;12.20;61.81;102405.13;5082180;28;20048;-65
2023/04/09 08:06:08;;;;;;;48.60;37.00;;;;;;;12.24;61.86;102403.59;5069000;28;20036;-65
2023/04/09 08:08:34;;;;;;;49.88;37.55;;;;;;;12.34;62.10;102401.16;5076464;28;20483;-65
2023/04/09 08:11:00;;;;;;;47.10;37.08;;;;;;;12.41;61.75;102399.16;5072158;28;20123;-63
2023/04/09 08:13:25;;;;;;;52.90;39.50;;;;;;;12.45;61.46;102400.41;5087103;28;20443;-63
2023/04/09 08:15:51;;;;;;;52.25;39.83;;;;;;;12.52;61.41;102395.63;5085743;28;20028;-62
2023/04/09 08:18:16;;;;;;;46.47;37.50;;;;;;;12.62;61.16;102402.63;5080828;28;20032;-62
2023/04/09 08:20:43;;;;;;;52.58;39.83;;;;;;;12.71;60.59;102398.47;5066483;28;20024;-62
2023/04/09 08:23:10;;;;;;;51.83;40.90;;;;;;;12.70;60.39;102405.13;5066080;28;20146;-65
2023/04/09 08:25:38;;;;;;;52.58;40.28;;;;;;;12.75;60.55;102396.91;5068652;28;20040;-65
2023/04/09 08:28:07;;;;;;;51.45;40.38;;;;;;;12.71;60.44;102404.03;5066299;28;20082;-66
2023/04/09 08:30:33;;;;;;;49.60;39.42;;;;;;;12.62;60.83;102400.69;5076528;28;20413;-65
2023/04/09 08:33:00;;;;;;;51.88;41.95;;;;;;;12.59;60.82;102400.31;5069382;28;20106;-68
2023/04/09 08:35:25;;;;;;;50.83;38.88;;;;;;;12.60;60.91;102396.44;5069686;28;20028;-66
2023/04/09 08:37:50;;;;;;;51.05;38.58;;;;;;;12.62;60.75;102400.69;5072801;28;20020;-66
2023/04/09 08:40:16;;;;;;;52.40;39.17;;;;;;;12.61;60.84;102398.97;5075078;28;20036;-65
2023/04/09 08:42:46;;;;;;;50.75;39.22;;;;;;;12.60;61.12;102399.22;5084794;28;20016;-63
2023/04/09 08:45:12;;;;;;;51.10;39.22;;;;;;;12.68;61.38;102396.13;5079541;28;20024;-64
2023/04/09 08:47:40;;;;;;;52.55;40.28;;;;;;;12.72;61.29;102387.06;5075746;28;20028;-65
2023/04/09 08:50:06;;;;;;;51.17;39.90;;;;;;;12.67;61.51;102398.06;5087067;28;20028;-62
2023/04/09 08:52:32;;;;;;;53.85;40.80;;;;;;;12.70;60.97;102396.78;5088546;28;20569;-63
2023/04/09 08:54:58;;;;;;;53.97;40.55;;;;;;;12.69;61.07;102395.03;5083790;28;20076;-64
2023/04/09 08:57:23;;;;;;;48.42;38.13;;;;;;;12.68;60.91;102388.63;5089518;28;20028;-64
2023/04/09 08:59:48;;;;;;;52.22;39.38;;;;;;;12.67;61.15;102384.13;5088549;28;20028;-64
2023/04/09 09:02:14;;;;;;;51.13;40.33;;;;;;;12.69;61.44;102395.03;5075463;28;20028;-64
2023/04/09 09:04:49;;;;;;;52.15;40.47;;;;;;;12.63;60.96;102395.97;5067095;28;20032;-64
2023/04/09 09:07:15;;;;;;;52.88;40.55;;;;;;;12.56;60.56;102393.25;5068376;28;20025;-64
2023/04/09 09:09:55;;;;;;;50.45;39.13;;;;;;;12.58;61.65;102393.88;5067711;28;20035;-65
2023/04/09 09:12:30;;;;;;;51.78;39.58;;;;;;;12.55;61.83;102393.50;5068044;28;20076;-64
2023/04/09 09:14:56;;;;;;;55.22;41.22;;;;;;;12.62;61.79;102388.72;5084847;28;20036;-64
2023/04/09 09:17:21;;;;;;;53.45;40.67;;;;;;;12.63;61.30;102388.47;5088083;28;20024;-64
2023/04/09 09:19:46;;;;;;;49.90;39.25;;;;;;;12.61;61.05;102393.41;5080521;28;20036;-64
2023/04/09 09:22:12;;;;;;;55.50;40.33;;;;;;;12.64;61.19;102386.53;5086709;28;20020;-64
2023/04/09 09:24:48;;;;;;;50.80;39.78;;;;;;;12.74;61.22;102395.22;5088844;28;20091;-64
2023/04/09 09:27:35;;;;;;;48.22;38.35;;;;;;;12.98;61.46;102385.09;5088836;28;20012;-64
2023/04/09 09:30:01;;;;;;;51.03;38.20;;;;;;;13.15;60.91;102391.75;5087829;28;20075;-64
2023/04/09 09:32:26;;;;;;;50.28;38.83;;;;;;;13.34;60.15;102370.31;5088468;28;20028;-64
2023/04/09 09:35:03;;;;;;;45.97;35.80;;;;;;;13.51;60.00;102376.94;5067823;28;20033;-64
2023/04/09 09:37:29;;;;;;;49.40;37.85;;;;;;;13.64;59.81;102370.34;5073359;28;20028;-63
2023/04/09 09:39:55;;;;;;;43.97;35.97;;;;;;;13.80;59.69;102368.81;5090563;28;20106;-64
2023/04/09 09:42:21;;;;;;;45.20;35.33;;;;;;;13.92;58.12;102360.47;5092565;28;20604;-63
2023/04/09 09:44:50;;;;;;;42.90;35.33;;;;;;;14.01;57.50;102370.19;5075639;28;20039;-63
2023/04/09 09:47:18;;;;;;;42.53;34.13;;;;;;;14.06;56.98;102364.75;5072102;28;20024;-63
2023/04/09 09:49:44;;;;;;;43.28;33.53;;;;;;;14.16;57.40;102358.59;5077828;28;20564;-63
2023/04/09 09:52:10;;;;;;;41.47;35.28;;;;;;;14.21;56.29;102364.28;5086380;28;20032;-63
2023/04/09 09:54:41;;;;;;;36.47;30.33;;;;;;;14.26;55.37;102353.22;5092445;28;20032;-63
2023/04/09 09:57:08;;;;;;;36.53;31.77;;;;;;;14.34;55.82;102355.66;5090989;28;20067;-63
2023/04/09 09:59:37;;;;;;;39.78;32.05;;;;;;;14.39;55.58;102355.81;5077843;28;20066;-61
2023/04/09 10:02:17;;;;;;;38.22;31.17;;;;;;;14.47;55.99;102351.81;5086478;28;20031;-60
2023/04/09 10:04:43;;;;;;;37.50;29.02;;;;;;;14.47;54.40;102344.28;5077017;28;20709;-63
2023/04/09 10:07:09;;;;;;;37.17;29.55;;;;;;;14.57;55.31;102342.84;5089401;28;20043;-63
2023/04/09 10:09:37;;;;;;;34.20;28.65;;;;;;;14.56;53.73;102343.94;5084941;28;20043;-63
2023/04/09 10:12:05;;;;;;;39.17;31.17;;;;;;;14.59;54.57;102340.66;5069413;28;20040;-63
2023/04/09 10:14:31;;;;;;;41.25;33.15;;;;;;;14.46;55.22;102344.50;5063018;28;20356;-62
2023/04/09 10:16:57;;;;;;;40.75;33.30;;;;;;;14.35;55.38;102343.41;5068049;28;20452;-63
2023/04/09 10:19:23;;;;;;;41.22;32.92;;;;;;;14.22;55.41;102338.91;5051319;28;20035;-63
2023/04/09 10:22:12;;;;;;;40.30;32.47;;;;;;;14.16;56.05;102336.25;5050073;28;20029;-62
2023/04/09 10:24:38;;;;;;;37.63;31.77;;;;;;;14.08;56.22;102331.00;5051566;28;20102;-62
2023/04/09 10:27:12;;;;;;;39.80;31.75;;;;;;;14.03;56.37;102328.06;5049743;28;20087;-62
2023/04/09 10:29:43;;;;;;;36.88;30.83;;;;;;;13.96;56.11;102328.19;5051410;28;20025;-62
2023/04/09 10:32:10;;;;;;;39.40;32.90;;;;;;;13.89;56.30;102316.28;5052164;28;20039;-62
2023/04/09 10:34:41;;;;;;;41.30;32.22;;;;;;;13.95;56.67;102321.78;5069824;28;20111;-62
2023/04/09 10:37:08;;;;;;;33.60;27.20;;;;;;;14.03;55.77;102316.91;5059561;28;20115;-62
2023/04/09 10:39:42;;;;;;;36.25;28.80;;;;;;;14.11;55.50;102313.75;5056229;28;20068;-62
2023/04/09 10:42:12;;;;;;;35.75;29.23;;;;;;;14.20;55.31;102312.31;5050958;28;20033;-62
2023/04/09 10:44:40;;;;;;;30.70;24.58;;;;;;;14.19;54.44;102307.84;5051802;28;20021;-62
2023/04/09 10:47:07;;;;;;;26.80;22.73;;;;;;;14.17;54.05;102312.81;5069535;28;20059;-62
2023/04/09 10:49:39;;;;;;;27.17;21.98;;;;;;;14.21;53.25;102302.84;5071633;28;20060;-62
2023/04/09 10:52:09;;;;;;;27.05;21.88;;;;;;;14.30;52.02;102304.16;5052288;28;20025;-62
2023/04/09 10:54:36;;;;;;;26.08;20.85;;;;;;;14.30;50.96;102300.53;5055471;28;20063;-62
2023/04/09 10:57:07;;;;;;;21.88;19.55;;;;;;;14.22;51.74;102294.22;5071176;28;20028;-62
2023/04/09 10:59:37;;;;;;;23.20;18.97;;;;;;;14.19;51.23;102294.72;5068716;28;20039;-59
2023/04/09 11:02:08;;;;;;;21.63;18.33;;;;;;;14.29;51.02;102294.09;5070209;28;20626;-60
2023/04/09 11:04:50;;;;;;;22.98;18.88;;;;;;;14.40;51.75;102293.25;5070872;28;20553;-59
2023/04/09 11:07:18;;;;;;;27.75;21.38;;;;;;;14.51;50.68;102291.59;5061621;28;20712;-58
2023/04/09 11:09:43;;;;;;;27.27;21.00;;;;;;;14.58;50.52;102286.72;5062654;28;20032;-59